Summerton, South Carolina
Current Conditions -  °F | °C
As of 11:25 AM on Monday 24 Nov 2014 (Local Time) from KSSC Reporting Station
Light Rain Light Rain  
Wind Chill: 70°   Ceiling: 1000
Heat Index: 70°   Visibility: 10mi
Dew Point: 68°   Wind: 9mph
Humidity: 94%   Direction: 190°S
Pressure: 29.83"   Gusts: NA
Location:  33.61°N, 80.35°W
Report Text: KSSC 241625Z AUTO 19008KT 10SM -RA OVC010 21/20 A2983 RMK AO2 DZB1614E1620 $
Loading
Personal Weather Stations






























Interactive Weather Map New forecast layout! Learn more

10-Day Weather Forecast

Advertisements
Track Severe Weather on mobile